Time;durP1;ratioP1;P1;durP2;ratioP2;P2;SDS_P1;SDS_P2;PMS_P1;PMS_P2;Temp;Humidity;BMP_temperature;BMP_pressure;BME280_temperature;BME280_humidity;BME280_pressure;Samples;Min_cycle;Max_cycle;Signal;HPM_P1;HPM_P2
2023/02/01 00:00:00;;;;;;;6.75;4.18;;;;;;;;;;5034023;28;20032;-38
2023/02/01 00:02:26;;;;;;;11.10;3.10;;;;;;;;;;5034128;28;20030;-38
2023/02/01 00:04:51;;;;;;;11.57;4.47;;;;;;;;;;5033936;28;20456;-38
2023/02/01 00:07:17;;;;;;;11.13;3.75;;;;;;;;;;5033902;28;20117;-38
2023/02/01 00:09:42;;;;;;;7.35;2.75;;;;;;;;;;5034228;28;20029;-38
2023/02/01 00:12:07;;;;;;;7.40;3.67;;;;;;;;;;5034039;28;20387;-38
2023/02/01 00:14:38;;;;;;;8.80;2.97;;;;;;;;;;5034035;28;20041;-38
2023/02/01 00:17:06;;;;;;;5.28;3.22;;;;;;;;;;5034011;28;20075;-38
2023/02/01 00:19:32;;;;;;;9.80;2.50;;;;;;;;;;5033499;28;20053;-38
2023/02/01 00:21:58;;;;;;;9.13;3.53;;;;;;;;;;5065673;28;20028;-38
2023/02/01 00:24:23;;;;;;;4.25;2.75;;;;;;;;;;5033643;28;20021;-38
2023/02/01 00:26:49;;;;;;;9.13;4.28;;;;;;;;;;5033813;28;20033;-38
2023/02/01 00:29:17;;;;;;;9.07;4.22;;;;;;;;;;5033584;28;20041;-38
2023/02/01 00:31:43;;;;;;;6.47;3.55;;;;;;;;;;5065495;28;20580;-39
2023/02/01 00:34:12;;;;;;;8.00;3.78;;;;;;;;;;5031917;28;20040;-38
2023/02/01 00:36:38;;;;;;;10.05;4.55;;;;;;;;;;5033710;28;20084;-38
2023/02/01 00:39:03;;;;;;;5.60;4.28;;;;;;;;;;5031996;28;20081;-38
2023/02/01 00:41:28;;;;;;;4.20;3.47;;;;;;;;;;5033631;28;20075;-38
2023/02/01 00:43:54;;;;;;;11.32;3.25;;;;;;;;;;5031988;28;20049;-38
2023/02/01 00:46:21;;;;;;;9.43;4.43;;;;;;;;;;5033307;28;20044;-39
2023/02/01 00:48:46;;;;;;;8.85;3.55;;;;;;;;;;5033211;28;20029;-38
2023/02/01 00:51:14;;;;;;;7.18;3.95;;;;;;;;;;5031834;28;20048;-39
2023/02/01 00:53:40;;;;;;;9.80;4.00;;;;;;;;;;5033108;28;20032;-38
2023/02/01 00:56:06;;;;;;;9.52;4.47;;;;;;;;;;5032931;28;20046;-38
2023/02/01 00:58:32;;;;;;;9.73;3.67;;;;;;;;;;5065074;28;20025;-39
2023/02/01 01:01:00;;;;;;;7.63;4.20;;;;;;;;;;5031585;28;20044;-38
2023/02/01 01:03:25;;;;;;;9.35;4.82;;;;;;;;;;5031612;28;20040;-38
2023/02/01 01:05:51;;;;;;;10.02;3.42;;;;;;;;;;5033121;28;20034;-38
2023/02/01 01:08:16;;;;;;;7.03;3.47;;;;;;;;;;5031115;28;20025;-38
2023/02/01 01:10:42;;;;;;;10.23;3.25;;;;;;;;;;5031588;28;20037;-38
2023/02/01 01:13:08;;;;;;;9.52;3.45;;;;;;;;;;5031727;28;20030;-38
2023/02/01 01:15:37;;;;;;;8.15;3.85;;;;;;;;;;5032516;28;20547;-38
2023/02/01 01:18:03;;;;;;;7.20;2.60;;;;;;;;;;5031129;28;20491;-38
2023/02/01 01:20:28;;;;;;;5.85;3.50;;;;;;;;;;5032671;28;20033;-38
2023/02/01 01:22:54;;;;;;;8.90;3.22;;;;;;;;;;5032565;28;20379;-38
2023/02/01 01:25:19;;;;;;;7.95;3.65;;;;;;;;;;5032478;28;20029;-41
2023/02/01 01:27:45;;;;;;;4.80;2.67;;;;;;;;;;5031214;28;20108;-38
2023/02/01 01:30:10;;;;;;;7.82;3.35;;;;;;;;;;5032354;28;20468;-38
2023/02/01 01:32:36;;;;;;;7.43;3.22;;;;;;;;;;5032348;28;20021;-38
2023/02/01 01:35:01;;;;;;;5.80;3.15;;;;;;;;;;5032253;28;20045;-38
2023/02/01 01:37:27;;;;;;;7.72;2.95;;;;;;;;;;5032228;28;20017;-38
2023/02/01 01:39:52;;;;;;;8.13;3.15;;;;;;;;;;5047561;28;20034;-38
2023/02/01 01:42:17;;;;;;;3.53;2.92;;;;;;;;;;5064075;28;20103;-38
2023/02/01 01:45:05;;;;;;;16.92;3.85;;;;;;;;;;5064007;28;20033;-39
2023/02/01 01:47:37;;;;;;;11.60;4.80;;;;;;;;;;5047669;28;20116;-38
2023/02/01 01:50:03;;;;;;;4.53;2.72;;;;;;;;;;5030673;28;20538;-38
2023/02/01 01:52:29;;;;;;;6.80;3.17;;;;;;;;;;5030701;28;20025;-38
2023/02/01 01:54:55;;;;;;;4.97;3.22;;;;;;;;;;5030568;28;20042;-38
2023/02/01 01:57:26;;;;;;;6.47;3.83;;;;;;;;;;5030499;28;20167;-38
2023/02/01 01:59:59;;;;;;;6.43;3.78;;;;;;;;;;5030536;28;20038;-38
2023/02/01 02:02:24;;;;;;;6.97;2.83;;;;;;;;;;5063910;28;20159;-38
2023/02/01 02:04:50;;;;;;;5.38;2.33;;;;;;;;;;5030441;28;20467;-38
2023/02/01 02:07:17;;;;;;;9.25;3.65;;;;;;;;;;5030385;28;20038;-38
2023/02/01 02:09:43;;;;;;;10.15;3.03;;;;;;;;;;5031725;28;20510;-38
2023/02/01 02:12:08;;;;;;;6.28;3.20;;;;;;;;;;5063657;28;20025;-39
2023/02/01 02:14:34;;;;;;;7.38;3.08;;;;;;;;;;5031598;28;20079;-38
2023/02/01 02:17:12;;;;;;;8.10;4.50;;;;;;;;;;5031502;28;20470;-38
2023/02/01 02:19:49;;;;;;;4.13;2.85;;;;;;;;;;5045834;28;20049;-38
2023/02/01 02:22:27;;;;;;;6.85;3.40;;;;;;;;;;5031853;28;20064;-38
2023/02/01 02:24:52;;;;;;;5.90;2.58;;;;;;;;;;5030245;28;20030;-38
2023/02/01 02:27:24;;;;;;;10.00;4.47;;;;;;;;;;5030106;28;20423;-38
2023/02/01 02:29:55;;;;;;;5.82;3.38;;;;;;;;;;5030197;28;20660;-38
2023/02/01 02:32:29;;;;;;;6.13;3.08;;;;;;;;;;5031296;28;20045;-38
2023/02/01 02:34:58;;;;;;;6.32;3.00;;;;;;;;;;5031316;28;20053;-38
2023/02/01 02:37:26;;;;;;;7.35;3.58;;;;;;;;;;5030040;28;20128;-38
2023/02/01 02:40:01;;;;;;;4.10;2.88;;;;;;;;;;5046627;28;20040;-38
2023/02/01 02:48:14;;;;;;;6.63;2.83;;;;;;;;;;5063353;28;20033;-38
2023/02/01 03:05:12;;;;;;;17.55;3.53;;;;;;;;;;5008926;28;20041;-38
2023/02/01 03:07:44;;;;;;;7.22;2.97;;;;;;;;;;4992603;28;20022;-38
2023/02/01 03:10:30;;;;;;;12.65;4.65;;;;;;;;;;5008780;28;20076;-38
2023/02/01 03:13:00;;;;;;;8.40;5.22;;;;;;;;;;5015948;28;20483;-38
2023/02/01 03:15:32;;;;;;;4.03;3.17;;;;;;;;;;5062902;28;20049;-38
2023/02/01 03:17:58;;;;;;;8.18;3.17;;;;;;;;;;5030823;28;20087;-38
2023/02/01 03:20:24;;;;;;;5.20;3.35;;;;;;;;;;5029698;28;20044;-38
2023/02/01 03:22:51;;;;;;;7.05;3.88;;;;;;;;;;5030884;28;20032;-38
2023/02/01 03:25:20;;;;;;;9.48;3.55;;;;;;;;;;5030890;28;20029;-38
2023/02/01 03:27:55;;;;;;;12.35;3.92;;;;;;;;;;5046320;28;20030;-38
2023/02/01 03:30:25;;;;;;;10.43;3.97;;;;;;;;;;5064350;28;20056;-38
2023/02/01 03:32:59;;;;;;;5.30;3.20;;;;;;;;;;5066576;28;20029;-38
2023/02/01 03:35:36;;;;;;;7.13;3.00;;;;;;;;;;5066639;28;20057;-38
2023/02/01 03:38:07;;;;;;;6.60;3.55;;;;;;;;;;5049782;28;20052;-39
2023/02/01 03:40:37;;;;;;;11.32;4.35;;;;;;;;;;5066499;28;20037;-41
2023/02/01 03:43:04;;;;;;;6.10;3.47;;;;;;;;;;5033097;28;20472;-38
2023/02/01 03:45:40;;;;;;;9.88;4.28;;;;;;;;;;5034333;28;20430;-38
2023/02/01 03:48:06;;;;;;;5.05;3.35;;;;;;;;;;5034248;28;20041;-38
2023/02/01 03:50:34;;;;;;;5.63;3.78;;;;;;;;;;5034356;28;20025;-38
2023/02/01 03:53:21;;;;;;;6.03;3.05;;;;;;;;;;5034212;28;20491;-39
2023/02/01 03:55:47;;;;;;;6.30;4.22;;;;;;;;;;5033221;28;20052;-40
2023/02/01 03:58:18;;;;;;;7.47;4.05;;;;;;;;;;5032749;28;20025;-38
2023/02/01 04:00:44;;;;;;;8.48;3.35;;;;;;;;;;5049460;28;20120;-38
2023/02/01 04:03:10;;;;;;;6.53;3.08;;;;;;;;;;5066039;28;20053;-38
2023/02/01 04:05:36;;;;;;;13.50;4.50;;;;;;;;;;5033982;28;20033;-38
2023/02/01 04:08:04;;;;;;;11.00;3.63;;;;;;;;;;5032725;28;20029;-38
2023/02/01 04:10:30;;;;;;;8.70;3.03;;;;;;;;;;5034243;28;20033;-38
2023/02/01 04:12:56;;;;;;;6.75;3.05;;;;;;;;;;5034040;28;20176;-38
2023/02/01 04:15:21;;;;;;;10.15;4.35;;;;;;;;;;5034022;28;20391;-38
2023/02/01 04:17:46;;;;;;;7.97;3.17;;;;;;;;;;5033800;28;20073;-38
2023/02/01 04:20:12;;;;;;;8.95;2.90;;;;;;;;;;5033678;28;20600;-38
2023/02/01 04:22:37;;;;;;;4.28;1.90;;;;;;;;;;5033660;28;20032;-39
2023/02/01 04:25:02;;;;;;;6.85;2.72;;;;;;;;;;5033676;28;20048;-38
2023/02/01 04:27:28;;;;;;;7.03;4.80;;;;;;;;;;5033819;28;20045;-38
2023/02/01 04:29:53;;;;;;;10.43;3.92;;;;;;;;;;5033624;28;20029;-38
2023/02/01 04:32:19;;;;;;;6.63;3.20;;;;;;;;;;5033449;28;20009;-38
2023/02/01 04:34:45;;;;;;;5.50;3.33;;;;;;;;;;5033286;28;20050;-38
2023/02/01 04:37:11;;;;;;;5.05;3.47;;;;;;;;;;5033346;28;20013;-38
2023/02/01 04:39:36;;;;;;;13.13;3.85;;;;;;;;;;5033489;28;20192;-38
2023/02/01 04:42:02;;;;;;;7.07;3.25;;;;;;;;;;5032483;28;20040;-37
2023/02/01 04:44:27;;;;;;;8.50;2.20;;;;;;;;;;5033342;28;20076;-38
2023/02/01 04:46:53;;;;;;;5.68;3.28;;;;;;;;;;5033256;28;20383;-38
2023/02/01 04:49:19;;;;;;;8.60;4.38;;;;;;;;;;5033463;28;20033;-38
2023/02/01 04:51:45;;;;;;;9.05;4.35;;;;;;;;;;5033182;28;20113;-38
2023/02/01 04:54:13;;;;;;;4.00;3.28;;;;;;;;;;5033248;28;20116;-38
2023/02/01 04:56:39;;;;;;;9.80;4.20;;;;;;;;;;5033366;28;20383;-38
2023/02/01 04:59:05;;;;;;;11.10;3.90;;;;;;;;;;5032974;28;20021;-38
2023/02/01 05:01:30;;;;;;;8.38;3.95;;;;;;;;;;5033314;28;20056;-38
2023/02/01 05:03:56;;;;;;;5.47;2.92;;;;;;;;;;5033123;28;20030;-38
2023/02/01 05:06:22;;;;;;;7.75;3.20;;;;;;;;;;5033150;28;20402;-38
2023/02/01 05:08:47;;;;;;;9.05;2.80;;;;;;;;;;5032739;28;20132;-38
2023/02/01 05:13:57;;;;;;;11.48;5.10;;;;;;;;;;5032671;28;20434;-38
2023/02/01 05:16:23;;;;;;;8.98;4.40;;;;;;;;;;5032763;28;20038;-39
2023/02/01 05:18:48;;;;;;;5.25;3.47;;;;;;;;;;5032603;28;20056;-38
2023/02/01 05:21:13;;;;;;;5.95;4.30;;;;;;;;;;5032861;28;20044;-38
2023/02/01 05:26:23;;;;;;;6.95;2.70;;;;;;;;;;5064569;28;20037;-38
2023/02/01 05:28:48;;;;;;;7.22;4.57;;;;;;;;;;5032510;28;20384;-38
2023/02/01 05:31:13;;;;;;;6.40;3.75;;;;;;;;;;5032672;28;20365;-38
2023/02/01 05:33:39;;;;;;;9.57;4.30;;;;;;;;;;5032577;28;20033;-38
2023/02/01 05:36:04;;;;;;;4.32;2.95;;;;;;;;;;5032505;28;20033;-38
2023/02/01 05:38:30;;;;;;;9.48;4.15;;;;;;;;;;5032484;28;20380;-37
2023/02/01 05:40:55;;;;;;;7.80;3.47;;;;;;;;;;5032342;28;20052;-38
2023/02/01 05:43:21;;;;;;;9.88;3.72;;;;;;;;;;5032109;28;20380;-38
2023/02/01 05:45:46;;;;;;;10.43;3.75;;;;;;;;;;5032038;28;20095;-38
2023/02/01 05:48:12;;;;;;;11.60;3.30;;;;;;;;;;5032106;28;20021;-38
2023/02/01 05:50:37;;;;;;;8.25;4.60;;;;;;;;;;5032308;28;20025;-38
2023/02/01 05:53:07;;;;;;;9.43;4.70;;;;;;;;;;5031693;28;20025;-38
2023/02/01 05:55:33;;;;;;;6.07;4.00;;;;;;;;;;5031908;28;20045;-38
2023/02/01 05:57:58;;;;;;;10.50;3.63;;;;;;;;;;5030760;28;20071;-38
2023/02/01 06:00:23;;;;;;;6.50;3.58;;;;;;;;;;5032111;28;20048;-38
2023/02/01 06:02:49;;;;;;;6.78;4.28;;;;;;;;;;5032046;28;20091;-38
2023/02/01 06:05:14;;;;;;;7.65;4.22;;;;;;;;;;5031848;28;20033;-39
2023/02/01 06:07:40;;;;;;;2.53;2.25;;;;;;;;;;5031796;28;20124;-38
2023/02/01 06:10:06;;;;;;;3.20;2.42;;;;;;;;;;5031679;28;20034;-38
2023/02/01 06:12:31;;;;;;;6.72;3.63;;;;;;;;;;5031716;28;20534;-38
2023/02/01 06:14:58;;;;;;;10.50;5.20;;;;;;;;;;5031580;28;20030;-38
2023/02/01 06:17:23;;;;;;;6.07;4.03;;;;;;;;;;5031391;28;20455;-39
2023/02/01 06:19:49;;;;;;;5.35;2.20;;;;;;;;;;5031682;28;20029;-38
2023/02/01 06:22:14;;;;;;;4.93;3.65;;;;;;;;;;5031352;28;20076;-38
2023/02/01 06:24:40;;;;;;;5.28;3.03;;;;;;;;;;5031648;28;20025;-38
2023/02/01 06:27:06;;;;;;;12.05;4.07;;;;;;;;;;5031441;28;20550;-38
2023/02/01 06:29:32;;;;;;;6.97;2.83;;;;;;;;;;5031566;28;20536;-38
2023/02/01 06:31:57;;;;;;;9.02;3.97;;;;;;;;;;5032108;28;20096;-38
2023/02/01 06:34:23;;;;;;;8.80;3.97;;;;;;;;;;5031555;28;20029;-38
2023/02/01 06:36:49;;;;;;;9.70;2.78;;;;;;;;;;5031419;28;20483;-38
2023/02/01 06:39:15;;;;;;;9.57;5.35;;;;;;;;;;5031685;28;20108;-39
2023/02/01 06:41:42;;;;;;;7.32;4.78;;;;;;;;;;5031421;28;20030;-38
2023/02/01 06:44:08;;;;;;;8.10;4.88;;;;;;;;;;5031493;28;20032;-38
2023/02/01 06:46:34;;;;;;;9.35;4.20;;;;;;;;;;5031610;28;20708;-38
2023/02/01 06:48:59;;;;;;;6.22;3.58;;;;;;;;;;5031264;28;20505;-39
2023/02/01 06:51:26;;;;;;;8.45;3.50;;;;;;;;;;5031294;28;20052;-38
2023/02/01 06:53:51;;;;;;;10.35;3.55;;;;;;;;;;5031432;28;20037;-38
2023/02/01 06:56:17;;;;;;;6.80;3.85;;;;;;;;;;5031084;28;20511;-38
2023/02/01 06:58:43;;;;;;;7.88;4.13;;;;;;;;;;5031332;28;20030;-38
2023/02/01 07:01:09;;;;;;;11.77;3.50;;;;;;;;;;5031157;28;20025;-38
2023/02/01 07:03:35;;;;;;;11.10;4.75;;;;;;;;;;5031117;28;20041;-38
2023/02/01 07:06:01;;;;;;;6.32;3.45;;;;;;;;;;5033713;28;20467;-37
2023/02/01 07:08:27;;;;;;;6.22;2.88;;;;;;;;;;5035080;28;20112;-38
2023/02/01 07:10:53;;;;;;;10.65;4.28;;;;;;;;;;5034991;28;20495;-38
2023/02/01 07:13:18;;;;;;;9.48;3.63;;;;;;;;;;5034906;28;20026;-38
2023/02/01 07:15:43;;;;;;;10.52;4.93;;;;;;;;;;5035239;28;20364;-38
2023/02/01 07:18:09;;;;;;;5.57;4.57;;;;;;;;;;5034755;28;20041;-38
2023/02/01 07:20:34;;;;;;;9.27;4.70;;;;;;;;;;5035160;28;20112;-38
2023/02/01 07:23:00;;;;;;;4.45;3.35;;;;;;;;;;5035133;28;20060;-38
2023/02/01 07:25:25;;;;;;;9.25;4.47;;;;;;;;;;5034706;28;20180;-38
2023/02/01 07:27:50;;;;;;;10.38;3.95;;;;;;;;;;5034753;28;20029;-38
2023/02/01 07:30:16;;;;;;;10.77;4.25;;;;;;;;;;5034711;28;20025;-39
2023/02/01 07:32:42;;;;;;;9.60;3.88;;;;;;;;;;5034595;28;20103;-39
2023/02/01 07:35:07;;;;;;;5.78;2.90;;;;;;;;;;5016816;28;20037;-38
2023/02/01 07:37:33;;;;;;;8.98;4.32;;;;;;;;;;5034644;28;20037;-38
2023/02/01 07:39:58;;;;;;;7.53;4.05;;;;;;;;;;5034519;28;20025;-38
2023/02/01 07:42:23;;;;;;;6.80;4.57;;;;;;;;;;5034719;28;20030;-38
2023/02/01 07:44:49;;;;;;;8.60;3.72;;;;;;;;;;5034707;28;20029;-38
2023/02/01 07:47:14;;;;;;;17.05;4.30;;;;;;;;;;5034266;28;20391;-38
2023/02/01 07:49:39;;;;;;;8.82;3.92;;;;;;;;;;5034655;28;20021;-38
2023/02/01 07:52:05;;;;;;;8.57;4.32;;;;;;;;;;5034226;28;20500;-38
2023/02/01 07:54:30;;;;;;;7.82;3.88;;;;;;;;;;5034128;28;20048;-38
2023/02/01 07:56:56;;;;;;;10.30;3.42;;;;;;;;;;5034290;28;20052;-38
2023/02/01 07:59:22;;;;;;;9.98;4.13;;;;;;;;;;5034201;28;20045;-38
2023/02/01 08:01:47;;;;;;;12.20;4.50;;;;;;;;;;5033994;28;20057;-38
2023/02/01 08:04:13;;;;;;;4.93;4.43;;;;;;;;;;5032679;28;20021;-38
2023/02/01 08:06:38;;;;;;;5.32;3.25;;;;;;;;;;5034063;28;20029;-38
2023/02/01 08:09:04;;;;;;;4.05;2.67;;;;;;;;;;5034010;28;20025;-38
2023/02/01 08:11:30;;;;;;;4.90;2.90;;;;;;;;;;5034252;28;20484;-38
2023/02/01 08:13:56;;;;;;;7.30;3.92;;;;;;;;;;5034155;28;20033;-38
2023/02/01 08:16:23;;;;;;;6.10;4.05;;;;;;;;;;5032686;28;20068;-38
2023/02/01 08:18:48;;;;;;;11.35;4.13;;;;;;;;;;5033715;28;20461;-38
2023/02/01 08:21:15;;;;;;;17.50;4.97;;;;;;;;;;5033723;28;20033;-38
2023/02/01 08:23:41;;;;;;;8.73;4.55;;;;;;;;;;5033911;28;20022;-38
2023/02/01 08:26:08;;;;;;;8.02;3.70;;;;;;;;;;5033620;28;20033;-38
2023/02/01 08:28:33;;;;;;;5.90;3.55;;;;;;;;;;5033899;28;20097;-38
2023/02/01 08:30:59;;;;;;;14.32;5.45;;;;;;;;;;5033581;28;20478;-39
2023/02/01 08:33:24;;;;;;;6.90;4.03;;;;;;;;;;5033464;28;20036;-38
2023/02/01 08:35:50;;;;;;;6.20;3.63;;;;;;;;;;5033391;28;20041;-38
2023/02/01 08:38:15;;;;;;;6.50;3.67;;;;;;;;;;5033441;28;20024;-38
2023/02/01 08:40:41;;;;;;;8.73;4.13;;;;;;;;;;5033746;28;20500;-38
2023/02/01 08:43:07;;;;;;;10.07;4.35;;;;;;;;;;5033416;28;20032;-38
2023/02/01 08:45:33;;;;;;;14.38;5.75;;;;;;;;;;5033668;28;20092;-38
2023/02/01 08:47:58;;;;;;;9.85;5.05;;;;;;;;;;5033296;28;20101;-38
2023/02/01 08:50:24;;;;;;;9.00;4.10;;;;;;;;;;5033384;28;20112;-38
2023/02/01 08:52:49;;;;;;;14.10;4.80;;;;;;;;;;5033201;28;20434;-38
2023/02/01 08:55:15;;;;;;;10.43;5.70;;;;;;;;;;5033300;28;20080;-38
2023/02/01 08:57:40;;;;;;;12.63;4.95;;;;;;;;;;5033098;28;20021;-38
2023/02/01 09:00:08;;;;;;;7.40;3.65;;;;;;;;;;5033086;28;20135;-39
2023/02/01 09:02:33;;;;;;;12.63;3.40;;;;;;;;;;5032962;28;20025;-38
2023/02/01 09:04:59;;;;;;;8.68;3.65;;;;;;;;;;5032858;28;20040;-38
2023/02/01 09:07:24;;;;;;;5.20;2.95;;;;;;;;;;5033132;28;20025;-38
2023/02/01 09:09:49;;;;;;;14.82;4.28;;;;;;;;;;5032887;28;20124;-38
2023/02/01 09:12:15;;;;;;;11.23;4.70;;;;;;;;;;5032644;28;20101;-38
2023/02/01 09:14:40;;;;;;;8.95;4.47;;;;;;;;;;5032761;28;20033;-38
2023/02/01 09:17:06;;;;;;;6.20;4.05;;;;;;;;;;5032751;28;20487;-38
2023/02/01 09:19:31;;;;;;;9.30;5.32;;;;;;;;;;5032426;28;20049;-38
2023/02/01 09:21:57;;;;;;;9.20;4.03;;;;;;;;;;5032629;28;20036;-38
2023/02/01 09:24:22;;;;;;;7.10;4.70;;;;;;;;;;5032854;28;20475;-38
2023/02/01 09:26:48;;;;;;;9.73;3.95;;;;;;;;;;5032462;28;20753;-38
2023/02/01 09:29:13;;;;;;;9.55;4.43;;;;;;;;;;5032374;28;20025;-38
2023/02/01 09:31:39;;;;;;;5.07;3.28;;;;;;;;;;5032403;28;20079;-38
2023/02/01 09:34:05;;;;;;;8.63;4.70;;;;;;;;;;5032309;28;20091;-38
2023/02/01 09:36:31;;;;;;;7.95;4.05;;;;;;;;;;5032413;28;20033;-38
2023/02/01 09:38:57;;;;;;;14.23;4.40;;;;;;;;;;5032352;28;20087;-43
2023/02/01 09:41:32;;;;;;;4.90;3.70;;;;;;;;;;5032353;28;20025;-38
2023/02/01 09:44:16;;;;;;;9.88;5.05;;;;;;;;;;5032199;28;20036;-39
2023/02/01 09:46:41;;;;;;;12.27;5.38;;;;;;;;;;5032487;28;20468;-39
2023/02/01 09:49:30;;;;;;;13.43;5.25;;;;;;;;;;5032053;28;20032;-38
2023/02/01 09:51:57;;;;;;;8.82;4.03;;;;;;;;;;5022833;28;20487;-38
2023/02/01 09:54:26;;;;;;;12.85;5.57;;;;;;;;;;5031894;28;20025;-38
2023/02/01 09:56:54;;;;;;;18.40;5.70;;;;;;;;;;5031912;28;20045;-38
2023/02/01 09:59:31;;;;;;;11.55;5.15;;;;;;;;;;5031910;28;20164;-38
2023/02/01 10:01:59;;;;;;;6.80;4.38;;;;;;;;;;5031770;28;20120;-38
2023/02/01 10:04:25;;;;;;;9.70;5.22;;;;;;;;;;5032092;28;20073;-38
2023/02/01 10:07:08;;;;;;;5.32;4.63;;;;;;;;;;5032111;28;20041;-38
2023/02/01 10:09:35;;;;;;;10.88;4.90;;;;;;;;;;5031764;28;20575;-38
2023/02/01 10:12:29;;;;;;;8.95;5.57;;;;;;;;;;5031899;28;20117;-38
2023/02/01 10:15:03;;;;;;;8.95;4.55;;;;;;;;;;4977728;28;20047;-38
2023/02/01 10:17:48;;;;;;;12.18;4.88;;;;;;;;;;5031705;28;20041;-38
2023/02/01 10:20:25;;;;;;;7.57;4.00;;;;;;;;;;5031656;28;20033;-38
2023/02/01 10:22:58;;;;;;;6.75;4.18;;;;;;;;;;5031812;28;20029;-38
2023/02/01 10:25:26;;;;;;;8.45;5.18;;;;;;;;;;5031783;28;20033;-39
2023/02/01 10:27:52;;;;;;;11.02;5.25;;;;;;;;;;5031541;28;20033;-39
2023/02/01 10:30:38;;;;;;;8.15;4.38;;;;;;;;;;5031364;28;20160;-39
2023/02/01 10:33:23;;;;;;;10.85;4.63;;;;;;;;;;5031130;28;20057;-38
2023/02/01 10:35:54;;;;;;;9.65;5.03;;;;;;;;;;5030924;28;20053;-39
2023/02/01 10:38:24;;;;;;;9.85;5.22;;;;;;;;;;5031311;28;20073;-38
2023/02/01 10:40:51;;;;;;;10.40;5.28;;;;;;;;;;5030600;28;20041;-38
2023/02/01 10:43:16;;;;;;;12.85;5.55;;;;;;;;;;5031234;28;20033;-38
2023/02/01 10:45:42;;;;;;;10.57;4.75;;;;;;;;;;5031632;28;20028;-38
2023/02/01 10:48:08;;;;;;;13.35;4.53;;;;;;;;;;5031302;28;20038;-38
2023/02/01 10:50:36;;;;;;;12.43;4.75;;;;;;;;;;5030296;28;20072;-39
2023/02/01 10:53:06;;;;;;;9.73;4.93;;;;;;;;;;5031204;28;20040;-39
2023/02/01 10:55:39;;;;;;;8.38;5.47;;;;;;;;;;5031066;28;20064;-38
2023/02/01 10:58:06;;;;;;;9.20;5.50;;;;;;;;;;5031489;28;20039;-38
2023/02/01 11:00:58;;;;;;;10.45;5.30;;;;;;;;;;5031439;28;20576;-38
2023/02/01 11:03:29;;;;;;;8.27;5.63;;;;;;;;;;5027030;28;20041;-38
2023/02/01 11:05:55;;;;;;;12.93;5.88;;;;;;;;;;5031398;28;20109;-38
2023/02/01 11:08:21;;;;;;;10.60;6.93;;;;;;;;;;5031150;28;20045;-38
2023/02/01 11:10:46;;;;;;;5.38;4.03;;;;;;;;;;5031146;28;20034;-39
2023/02/01 11:13:16;;;;;;;14.23;5.57;;;;;;;;;;5031236;28;20047;-39
2023/02/01 11:15:46;;;;;;;19.55;6.15;;;;;;;;;;5030995;28;20045;-38
2023/02/01 11:18:26;;;;;;;11.50;6.07;;;;;;;;;;5031045;28;20049;-38
2023/02/01 11:20:52;;;;;;;14.77;6.18;;;;;;;;;;5031311;28;20033;-38
2023/02/01 11:23:19;;;;;;;11.52;5.47;;;;;;;;;;5030895;28;20029;-38
2023/02/01 11:25:57;;;;;;;8.05;4.32;;;;;;;;;;5031237;28;20032;-38
2023/02/01 11:28:24;;;;;;;17.70;6.15;;;;;;;;;;5030889;28;20471;-38
2023/02/01 11:30:51;;;;;;;11.30;5.65;;;;;;;;;;5030968;28;20116;-38
2023/02/01 11:33:19;;;;;;;9.73;4.65;;;;;;;;;;5030829;28;20488;-38
2023/02/01 11:35:45;;;;;;;13.10;7.28;;;;;;;;;;5030797;28;20029;-38
2023/02/01 11:38:22;;;;;;;19.92;6.38;;;;;;;;;;5031127;28;20110;-38
2023/02/01 11:40:48;;;;;;;15.88;6.90;;;;;;;;;;5030909;28;20060;-38
2023/02/01 11:43:13;;;;;;;11.77;6.40;;;;;;;;;;5030777;28;20538;-38
2023/02/01 11:45:39;;;;;;;9.40;5.20;;;;;;;;;;5030732;28;20499;-41
2023/02/01 11:48:09;;;;;;;16.90;7.18;;;;;;;;;;5030781;28;20034;-38
2023/02/01 11:50:42;;;;;;;11.95;5.38;;;;;;;;;;5031139;28;20152;-39
2023/02/01 11:53:29;;;;;;;7.97;5.45;;;;;;;;;;5034330;28;20369;-38
2023/02/01 11:55:58;;;;;;;10.50;5.47;;;;;;;;;;5034101;28;20045;-38
2023/02/01 11:58:32;;;;;;;13.88;6.45;;;;;;;;;;5034575;28;20372;-38
2023/02/01 12:01:03;;;;;;;15.98;5.75;;;;;;;;;;5034209;28;20021;-38
2023/02/01 12:03:28;;;;;;;7.68;5.18;;;;;;;;;;5032709;28;20434;-39
2023/02/01 12:06:13;;;;;;;13.93;6.50;;;;;;;;;;5034199;28;20055;-39
2023/02/01 12:08:48;;;;;;;10.82;6.07;;;;;;;;;;5034097;28;20475;-38
2023/02/01 12:11:28;;;;;;;12.68;5.63;;;;;;;;;;5032820;28;20040;-38
2023/02/01 12:13:59;;;;;;;6.90;4.05;;;;;;;;;;5033951;28;20065;-38
2023/02/01 12:16:43;;;;;;;8.93;6.10;;;;;;;;;;5033802;28;20087;-38
2023/02/01 12:19:11;;;;;;;10.70;6.13;;;;;;;;;;5033726;28;20436;-38
2023/02/01 12:21:55;;;;;;;10.70;5.63;;;;;;;;;;5033797;28;20663;-38
2023/02/01 12:24:20;;;;;;;14.10;5.78;;;;;;;;;;5065805;28;20033;-39
2023/02/01 12:27:05;;;;;;;22.67;6.32;;;;;;;;;;5033759;28;20063;-38
2023/02/01 12:29:43;;;;;;;11.90;3.97;;;;;;;;;;5033813;28;20321;-38
2023/02/01 12:32:20;;;;;;;14.88;7.05;;;;;;;;;;5033749;28;20380;-39
2023/02/01 12:35:04;;;;;;;14.93;5.65;;;;;;;;;;5033541;28;20228;-38
2023/02/01 12:37:30;;;;;;;7.18;5.32;;;;;;;;;;5033445;28;20108;-38
2023/02/01 12:40:14;;;;;;;17.02;6.57;;;;;;;;;;5033537;28;20105;-38
2023/02/01 12:42:50;;;;;;;12.05;6.88;;;;;;;;;;5033410;28;20539;-38
2023/02/01 12:45:25;;;;;;;9.75;4.82;;;;;;;;;;5033258;28;20192;-38
2023/02/01 12:47:56;;;;;;;7.70;5.13;;;;;;;;;;5033256;28;20033;-38
2023/02/01 12:50:28;;;;;;;17.83;6.53;;;;;;;;;;5033264;28;20491;-39
2023/02/01 12:52:57;;;;;;;12.60;5.72;;;;;;;;;;5033148;28;20463;-38
2023/02/01 12:55:23;;;;;;;9.00;5.95;;;;;;;;;;5033100;28;20029;-38
2023/02/01 12:57:54;;;;;;;16.27;6.32;;;;;;;;;;5033419;28;20025;-39
2023/02/01 13:00:38;;;;;;;11.55;6.43;;;;;;;;;;5033246;28;20047;-38
2023/02/01 13:03:22;;;;;;;16.17;6.35;;;;;;;;;;5032229;28;20068;-38
2023/02/01 13:05:57;;;;;;;14.85;6.20;;;;;;;;;;5032939;28;20026;-39
2023/02/01 13:08:38;;;;;;;10.93;5.93;;;;;;;;;;5033376;28;20439;-38
2023/02/01 13:11:06;;;;;;;8.15;3.20;;;;;;;;;;5033157;28;20040;-38
2023/02/01 13:13:40;;;;;;;7.95;4.15;;;;;;;;;;5032717;28;20029;-40
2023/02/01 13:16:17;;;;;;;13.23;6.13;;;;;;;;;;5032746;28;20065;-38
2023/02/01 13:18:46;;;;;;;6.70;3.97;;;;;;;;;;5032624;28;20056;-38
2023/02/01 13:21:17;;;;;;;24.27;8.52;;;;;;;;;;5032832;28;20109;-38
2023/02/01 13:23:44;;;;;;;9.93;5.72;;;;;;;;;;5032578;28;20036;-38
2023/02/01 13:26:10;;;;;;;18.20;6.95;;;;;;;;;;5032672;28;20096;-38
2023/02/01 13:28:36;;;;;;;19.73;6.75;;;;;;;;;;5032448;28;20129;-38
2023/02/01 13:31:24;;;;;;;16.25;7.82;;;;;;;;;;5032572;28;20022;-38
2023/02/01 13:33:49;;;;;;;20.88;7.95;;;;;;;;;;5032513;28;20112;-38
2023/02/01 13:36:30;;;;;;;17.48;6.68;;;;;;;;;;5032262;28;20112;-38
2023/02/01 13:39:14;;;;;;;15.48;7.88;;;;;;;;;;5032385;28;20107;-38
2023/02/01 13:41:42;;;;;;;20.17;7.80;;;;;;;;;;5032352;28;20116;-39
2023/02/01 13:44:13;;;;;;;23.73;9.65;;;;;;;;;;5032495;28;20032;-38
2023/02/01 13:46:41;;;;;;;14.57;6.72;;;;;;;;;;5032130;28;20423;-38
2023/02/01 13:49:13;;;;;;;12.90;7.35;;;;;;;;;;5030931;28;20025;-39
2023/02/01 13:51:43;;;;;;;15.97;8.13;;;;;;;;;;5032101;28;20041;-38
2023/02/01 13:54:25;;;;;;;15.27;7.40;;;;;;;;;;5032367;28;20080;-39
2023/02/01 13:56:52;;;;;;;11.55;5.63;;;;;;;;;;5032003;28;20037;-38
2023/02/01 13:59:36;;;;;;;14.75;6.47;;;;;;;;;;5031930;28;20112;-39
2023/02/01 14:02:20;;;;;;;19.63;7.63;;;;;;;;;;5031908;28;20057;-39
2023/02/01 14:04:47;;;;;;;3.63;2.90;;;;;;;;;;5031882;28;20041;-39
2023/02/01 14:07:19;;;;;;;9.27;4.15;;;;;;;;;;5032017;28;20028;-39
2023/02/01 14:09:45;;;;;;;10.85;7.18;;;;;;;;;;5032255;28;20033;-38
2023/02/01 14:12:30;;;;;;;10.27;6.55;;;;;;;;;;5031652;28;20060;-38
2023/02/01 14:15:15;;;;;;;18.38;7.78;;;;;;;;;;5031595;28;20537;-39
2023/02/01 14:17:41;;;;;;;22.23;9.18;;;;;;;;;;5031417;28;20053;-38
2023/02/01 14:20:26;;;;;;;16.02;8.43;;;;;;;;;;5031708;28;20544;-38
2023/02/01 14:23:00;;;;;;;18.92;8.20;;;;;;;;;;5031640;28;20037;-38
2023/02/01 14:25:25;;;;;;;13.75;8.57;;;;;;;;;;5031550;28;20037;-39
2023/02/01 14:27:53;;;;;;;23.40;7.78;;;;;;;;;;5031659;28;20017;-38
2023/02/01 14:30:19;;;;;;;17.83;9.52;;;;;;;;;;5031615;28;20028;-38
2023/02/01 14:32:48;;;;;;;18.75;8.57;;;;;;;;;;5031415;28;20108;-38
2023/02/01 14:35:19;;;;;;;30.80;10.98;;;;;;;;;;5031372;28;20476;-38
2023/02/01 14:37:45;;;;;;;20.33;11.27;;;;;;;;;;5031437;28;20033;-40
2023/02/01 14:40:10;;;;;;;15.90;8.85;;;;;;;;;;5031672;28;20026;-39
2023/02/01 14:42:44;;;;;;;18.35;9.20;;;;;;;;;;5031250;28;20498;-38
2023/02/01 14:45:19;;;;;;;21.20;9.38;;;;;;;;;;5031726;28;20029;-39
2023/02/01 14:47:50;;;;;;;23.15;10.75;;;;;;;;;;5031270;28;20364;-38
2023/02/01 14:50:25;;;;;;;20.92;9.98;;;;;;;;;;5031326;28;20026;-38
2023/02/01 14:53:12;;;;;;;23.42;8.77;;;;;;;;;;5031274;28;20037;-38
2023/02/01 14:55:53;;;;;;;17.98;8.90;;;;;;;;;;5031163;28;20092;-38
2023/02/01 14:58:23;;;;;;;16.02;7.80;;;;;;;;;;5031151;28;20467;-39
2023/02/01 15:00:50;;;;;;;14.52;8.25;;;;;;;;;;5031447;28;20087;-38
2023/02/01 15:03:19;;;;;;;21.48;9.82;;;;;;;;;;5031524;28;20108;-38
2023/02/01 15:05:45;;;;;;;31.63;12.80;;;;;;;;;;5031216;28;20025;-38
2023/02/01 15:08:14;;;;;;;16.75;9.98;;;;;;;;;;5031067;28;20736;-39
2023/02/01 15:10:44;;;;;;;17.83;9.57;;;;;;;;;;5031257;28;20029;-38
2023/02/01 15:13:20;;;;;;;18.00;9.35;;;;;;;;;;5031417;28;20470;-38